Espaço - Ciências - Fenômenos Naturais
Meteógrafos Informações Meteorológicas em tempo real

Aeroporto de Boa Vista

Histórico do Tempo
Temperatura atual: 27 graus 80 F    Umidade relativa: 83 %
Velocidade do vento: 02 nós 3 Km/h    Direção: 300 graus WNW
Ajuste do altímetro ..: 1013 HPA
Visibilidade: Ótima    Tempo presente: Parcialmente Nublado

Observação
Poucas nuvens a 1000 Pés., Céu nublado a 10000 Pés.

Data Hora BRTTempo°CUmidadePressãoVentoVisib.
24/05 - 08:56   Parcialmente Nublado 27° 83% 1013 Oeste-noroeste/3 km/h OK
24/05 - 07:56   Parcialmente Nublado 26° 88% 1012 Noroeste/3 km/h OK
24/05 - 06:56   Céu Limpo 26° 88% 1012 Sul/3 km/h OK
24/05 - 05:56   Parcialmente Nublado 26° 83% 1011 Norte/3 km/h OK
24/05 - 04:56   Parcialmente Nublado 26° 83% 1011 Norte/0 km/h OK
24/05 - 03:56   Parcialmente Nublado 26° 88% 1011 Sudeste/1 km/h OK
24/05 - 02:56   Céu Limpo 26° 88% 1011 Sul-sudeste/5 km/h OK
24/05 - 01:56   Céu Limpo 26° 88% 1011 Sudeste/3 km/h OK
24/05 - 00:56   Céu Limpo 26° 88% 1012 Sudoeste/3 km/h OK
23/05 - 23:56   Céu Limpo 27° 83% 1012 Norte/3 km/h OK
23/05 - 22:56   Céu Limpo 27° 83% 1012 Sudeste/3 km/h OK
23/05 - 21:56   Céu Limpo 27° 83% 1011 Noroeste/5 km/h OK
23/05 - 20:56   Parcialmente Nublado 28° 74% 1010 Leste/5 km/h OK
23/05 - 19:56   Parcialmente Nublado 28° 74% 1010 Leste/5 km/h OK
23/05 - 18:56   Parcialmente Nublado 30° 66% 1009 Sudoeste/12 km/h OK
23/05 - 17:56   Parcialmente Nublado 28° 74% 1009 Sul-sudeste/16 km/h OK
23/05 - 16:56   Parcialmente Nublado 31° 55% 1009 Sudeste/5 km/h OK
23/05 - 15:56   Muitas Nuvens 32° 52% 1010 Sul/9 km/h OK
23/05 - 14:56   Muitas Nuvens 31° 55% 1011 Nordeste/3 km/h OK
23/05 - 13:56   Muitas Nuvens 30° 66% 1012 Sul-sudeste/10 km/h OK
23/05 - 12:56   Muitas Nuvens 30° 62% 1013 Este-sudeste/10 km/h OK
23/05 - 11:56   Muitas Nuvens 30° 62% 1014 Este-sudeste/9 km/h OK
23/05 - 10:56   Muitas Nuvens 28° 70% 1014 Este-sudeste/9 km/h OK
23/05 - 09:56   Muitas Nuvens 27° 78% 1015 Sudeste/7 km/h OK


Apolo11.com - Todos os direitos reservados - 2000 - 2019
Política de Privacidade   |     Termo de Uso e Licenciamento   |  -   Entre em Contato

"Política é a guerra sem sangue enquanto a guerra é a política com sangue" - Mao Tsé-Tung